Sugar Land, TX (77478)

8:20 AM CDT on September 04, 2015 (GMT -0500)
Sugar Mill | | Change Station
CLOSE
Current Station
Personal Weather Station
Location: Sugar Land, TX
Elevation: 108 ft
Nearby Weather Stations

Elev 108 ft 29.63 °N, 95.63 °W | Updated 9 seconds ago

Clear
Clear
77.5 °F
Feels Like 79 °F
N
0.0
Wind Variable Wind from North
Gusts 0.0 mph

Today
High -- | Low -- °F
--% Chance of Precip.
Yesterday
High -- | Low -- °F
Precip. -- in
7:01 AM 7:41 PM
Waning Gibbous, 59% visible
Pressure 29.94 in
Visibility 10.0 miles
Clouds Clear
Heat Index 79 °F
Dew Point 77 °F
Humidity 99%
Rainfall 0.00 in
Snow Depth Not available.
UV 1 out of 12
Pollen 6.30 out of 12
Air Quality Not available.
Flu Activity Not available.
METAR KSGR 041253Z 00000KT 10SM CLR 26/25 A2994 RMK AO2 SLP138 T02610250
Pressure 29.94 in
Visibility 10.0 miles
Clouds Clear
Heat Index 79 °F
Dew Point 77 °F
Humidity 99%
Rainfall 0.00 in
Snow Depth Not available.
UV 1 out of 12
Pollen 6.30 out of 12
Air Quality Not available.
Flu Activity Not available.
METAR KSGR 041253Z 00000KT 10SM CLR 26/25 A2994 RMK AO2 SLP138 T02610250

10-Day Weather Forecast

×

Almanac

Astronomy

Sep. 04, 2015 Rise Set
Actual Time
Civil Twilight
Nautical Twilight
Astronomical Twilight
Moon
Length of Visible Light
Length of Day
Tomorrow will be .
, % of the Moon is Illuminated

Today's Extremes

State Highs State Lows

Community

WunderPhotos

Upload Photos

1,852,179 photos uploaded!

WunderBlogs® & News

Nearby

Air Quality

  Air Quality AQ Index Pollutant
Not available.

Snow Depth

Station Depth Elevation

Earthquake Activity

City Distance Mag. Time & Date
Minimum magnitude displayed is 2.5.

Coastal Water Temperatures

Place Temperature

Stations

Nearby Weather Stations

Station Location Temp. Windchill Dew Point Humidity Wind Precip. Elev Updated Type